createdAt,value
2019-04-24T00:01:15.161Z,2.93
2019-04-24T00:03:29.233Z,5.33
2019-04-24T00:06:14.744Z,2.10
2019-04-24T00:08:36.881Z,1.97
2019-04-24T00:11:35.977Z,2.10
2019-04-24T00:16:27.382Z,3.63
2019-04-24T00:24:19.198Z,5.93
2019-04-24T00:26:28.269Z,1.70
2019-04-24T00:29:14.860Z,2.33
2019-04-24T00:31:52.206Z,2.53
2019-04-24T00:34:06.766Z,1.53
2019-04-24T00:46:53.698Z,2.23
2019-04-24T00:54:14.455Z,1.80
2019-04-24T00:59:24.038Z,2.23
2019-04-24T01:02:19.003Z,4.40
2019-04-24T01:08:29.103Z,1.97
2019-04-24T01:13:54.272Z,6.10
2019-04-24T01:16:27.418Z,2.90
2019-04-24T01:18:50.316Z,5.70
2019-04-24T01:21:20.959Z,2.30
2019-04-24T01:24:01.407Z,2.20
2019-04-24T01:26:31.340Z,4.30
2019-04-24T01:28:52.982Z,2.30
2019-04-24T01:34:08.187Z,2.23
2019-04-24T01:36:43.392Z,3.87
2019-04-24T01:39:48.750Z,2.67
2019-04-24T01:44:45.364Z,6.20
2019-04-24T01:49:45.712Z,2.17
2019-04-24T01:52:25.089Z,2.67
2019-04-24T01:54:44.775Z,3.43
2019-04-24T01:57:21.232Z,2.07
2019-04-24T01:59:44.376Z,2.20
2019-04-24T02:02:23.578Z,3.00
2019-04-24T02:07:25.197Z,2.87
2019-04-24T02:12:47.697Z,4.20
2019-04-24T02:15:20.669Z,2.70
2019-04-24T02:17:44.419Z,6.03
2019-04-24T02:20:23.816Z,3.00
2019-04-24T02:22:50.308Z,2.70
2019-04-24T02:25:19.785Z,4.83
2019-04-24T02:27:45.351Z,2.57
2019-04-24T02:30:26.612Z,4.67
2019-04-24T02:33:32.684Z,4.87
2019-04-24T02:36:24.063Z,2.83
2019-04-24T02:38:53.060Z,3.00
2019-04-24T02:41:11.404Z,4.50
2019-04-24T02:51:10.596Z,6.60
2019-04-24T02:53:40.742Z,5.33
2019-04-24T02:59:01.936Z,5.33
2019-04-24T03:06:20.222Z,3.80
2019-04-24T03:22:14.021Z,4.07
2019-04-24T03:27:42.177Z,4.87
2019-04-24T03:33:00.245Z,5.13
2019-04-24T03:40:27.723Z,10.60
2019-04-24T03:45:18.967Z,7.87
2019-04-24T03:47:59.503Z,4.63
2019-04-24T03:51:12.540Z,7.70
2019-04-24T03:55:55.362Z,8.50
2019-04-24T03:58:19.218Z,5.87
2019-04-24T04:03:24.588Z,5.63
2019-04-24T04:05:38.235Z,8.30
2019-04-24T04:26:53.109Z,6.77
2019-04-24T04:29:32.094Z,9.03
2019-04-24T04:32:10.462Z,8.33
2019-04-24T04:34:41.398Z,9.50
2019-04-24T04:37:16.006Z,7.70
2019-04-24T04:39:48.761Z,6.50
2019-04-24T04:42:34.229Z,8.40
2019-04-24T04:44:55.156Z,6.10
2019-04-24T04:47:25.344Z,8.80
2019-04-24T04:56:08.180Z,7.03
2019-04-24T05:00:35.572Z,6.67
2019-04-24T05:03:17.978Z,11.67
2019-04-24T05:08:36.457Z,7.13
2019-04-24T05:10:55.826Z,7.10
2019-04-24T05:13:07.917Z,10.30
2019-04-24T05:16:10.655Z,10.70
2019-04-24T05:23:26.265Z,6.53
2019-04-24T05:26:41.368Z,9.60
2019-04-24T05:28:48.545Z,6.80
2019-04-24T05:31:07.628Z,6.50
2019-04-24T05:33:40.666Z,6.57
2019-04-24T05:36:25.967Z,6.13
2019-04-24T05:39:10.672Z,10.40
2019-04-24T05:54:14.655Z,8.10
2019-04-24T05:57:02.242Z,10.10
2019-04-24T05:59:33.188Z,9.80
2019-04-24T06:04:41.456Z,6.70
2019-04-24T06:07:12.011Z,9.00
2019-04-24T06:12:28.261Z,11.43
2019-04-24T06:15:09.905Z,8.73
2019-04-24T06:23:08.420Z,10.00
2019-04-24T06:25:47.414Z,11.20
2019-04-24T06:30:37.110Z,7.23
2019-04-24T06:32:48.026Z,8.43
2019-04-24T06:36:02.007Z,12.23
2019-04-24T06:38:41.285Z,7.13
2019-04-24T06:41:16.609Z,14.93
2019-04-24T06:43:45.191Z,9.30
2019-04-24T06:46:15.265Z,12.10
2019-04-24T06:48:46.433Z,15.63
2019-04-24T06:51:18.612Z,8.57
2019-04-24T06:54:02.860Z,10.83
2019-04-24T06:56:56.078Z,16.17
2019-04-24T07:06:49.161Z,10.77
2019-04-24T07:09:34.997Z,12.20
2019-04-24T07:12:12.005Z,9.93
2019-04-24T07:15:10.968Z,9.83
2019-04-24T07:17:29.411Z,10.20
2019-04-24T07:19:51.266Z,11.77
2019-04-24T07:27:49.156Z,19.23
2019-04-24T07:30:36.116Z,9.03
2019-04-24T07:33:07.006Z,12.33
2019-04-24T07:38:18.448Z,9.13
2019-04-24T07:41:02.043Z,8.80
2019-04-24T07:46:18.839Z,14.60
2019-04-24T07:48:55.192Z,10.97
2019-04-24T08:02:19.367Z,8.17
2019-04-24T08:04:37.156Z,7.35
2019-04-24T08:07:06.899Z,8.38
2019-04-24T08:10:17.383Z,8.05
2019-04-24T08:17:42.156Z,12.25
2019-04-24T08:22:33.263Z,10.55
2019-04-24T08:25:12.339Z,7.78
2019-04-24T08:27:36.761Z,7.80
2019-04-24T08:34:51.574Z,14.70
2019-04-24T08:37:50.920Z,7.65
2019-04-24T08:40:30.421Z,12.05
2019-04-24T08:45:46.999Z,7.12
2019-04-24T08:56:12.544Z,9.55
2019-04-24T09:04:06.045Z,7.80
2019-04-24T09:06:30.673Z,15.43
2019-04-24T09:09:04.823Z,7.42
2019-04-24T09:14:28.475Z,12.07
2019-04-24T09:19:22.305Z,8.93
2019-04-24T09:22:12.062Z,7.67
2019-04-24T09:27:39.539Z,9.35
2019-04-24T09:32:50.696Z,10.20
2019-04-24T09:35:41.122Z,9.18
2019-04-24T09:38:09.904Z,7.55
2019-04-24T09:46:01.177Z,10.35
2019-04-24T09:50:59.072Z,11.53
2019-04-24T09:53:45.692Z,8.33
2019-04-24T09:56:03.843Z,11.45
2019-04-24T09:58:56.212Z,8.30
2019-04-24T10:04:30.917Z,8.85
2019-04-24T10:09:08.592Z,9.93
2019-04-24T10:14:28.616Z,7.55
2019-04-24T10:17:08.515Z,9.23
2019-04-24T10:22:23.887Z,9.53
2019-04-24T10:24:59.695Z,12.07
2019-04-24T10:27:22.706Z,13.18
2019-04-24T10:29:56.663Z,13.45
2019-04-24T10:33:06.249Z,9.93
2019-04-24T10:43:42.836Z,7.20
2019-04-24T10:46:12.822Z,7.85
2019-04-24T10:51:57.466Z,8.33
2019-04-24T10:54:02.467Z,11.68
2019-04-24T10:56:43.758Z,8.93
2019-04-24T10:59:17.155Z,9.05
2019-04-24T11:02:18.701Z,8.20
2019-04-24T11:04:44.658Z,11.88
2019-04-24T11:13:02.355Z,10.20
2019-04-24T11:15:42.291Z,11.75
2019-04-24T11:18:20.457Z,10.93
2019-04-24T11:21:34.570Z,10.53
2019-04-24T11:23:27.623Z,7.95
2019-04-24T11:26:13.432Z,13.45
2019-04-24T11:28:49.629Z,7.85
2019-04-24T11:31:25.563Z,10.13
2019-04-24T11:36:53.193Z,9.25
2019-04-24T11:39:37.277Z,11.25
2019-04-24T11:44:16.558Z,12.65
2019-04-24T11:53:10.604Z,13.03
2019-04-24T12:01:03.023Z,12.05
2019-04-24T12:04:07.976Z,13.38
2019-04-24T12:06:46.678Z,8.20
2019-04-24T12:08:59.812Z,9.50
2019-04-24T12:14:13.830Z,9.68
2019-04-24T12:16:59.267Z,9.23
2019-04-24T12:19:45.236Z,12.30
2019-04-24T12:22:10.065Z,9.10
2019-04-24T12:24:43.802Z,8.10
2019-04-24T12:27:17.276Z,12.60
2019-04-24T12:32:32.771Z,11.38
2019-04-24T12:35:14.287Z,12.60
2019-04-24T12:37:50.914Z,10.65
2019-04-24T12:40:29.129Z,11.18
2019-04-24T12:42:50.839Z,10.75
2019-04-24T12:47:46.613Z,10.58
2019-04-24T12:50:27.906Z,11.68
2019-04-24T12:52:53.143Z,15.30
2019-04-24T12:55:45.483Z,10.18
2019-04-24T12:58:18.037Z,8.15
2019-04-24T13:03:47.995Z,9.63
2019-04-24T13:09:03.042Z,9.13
2019-04-24T13:11:15.724Z,8.53
2019-04-24T13:14:05.637Z,16.02
2019-04-24T13:17:06.508Z,11.68
2019-04-24T13:19:20.231Z,15.68
2019-04-24T13:21:31.693Z,10.10
2019-04-24T13:24:09.381Z,10.55
2019-04-24T13:27:07.000Z,10.95
2019-04-24T13:29:43.996Z,13.83
2019-04-24T13:34:56.794Z,7.65
2019-04-24T13:39:52.695Z,11.73
2019-04-24T13:42:23.439Z,8.20
2019-04-24T13:47:29.393Z,7.58
2019-04-24T13:50:04.212Z,8.98
2019-04-24T13:55:04.334Z,7.42
2019-04-24T13:57:25.491Z,10.53
2019-04-24T14:00:03.294Z,7.00
2019-04-24T14:02:51.130Z,9.33
2019-04-24T14:05:02.428Z,8.15
2019-04-24T14:07:35.284Z,8.23
2019-04-24T14:15:07.381Z,7.12
2019-04-24T14:17:37.905Z,11.28
2019-04-24T14:20:18.864Z,12.55
2019-04-24T14:23:05.737Z,8.65
2019-04-24T14:28:06.405Z,7.90
2019-04-24T14:30:29.110Z,10.00
2019-04-24T14:35:25.037Z,6.00
2019-04-24T14:38:02.465Z,6.83
2019-04-24T14:40:39.921Z,6.40
2019-04-24T14:43:05.230Z,8.53
2019-04-24T14:45:42.175Z,7.35
2019-04-24T14:48:01.479Z,8.93
2019-04-24T14:52:48.368Z,8.05
2019-04-24T14:55:31.061Z,9.58
2019-04-24T14:58:03.735Z,5.03
2019-04-24T15:00:48.777Z,6.83
2019-04-24T15:03:03.771Z,10.40
2019-04-24T15:05:42.659Z,7.15
2019-04-24T15:10:36.276Z,7.08
2019-04-24T15:13:23.505Z,5.42
2019-04-24T15:15:31.530Z,8.13
2019-04-24T15:18:42.010Z,4.85
2019-04-24T15:20:42.344Z,8.55
2019-04-24T15:23:15.260Z,9.70
2019-04-24T15:28:13.920Z,6.40
2019-04-24T15:30:53.762Z,5.83
2019-04-24T15:33:16.301Z,6.85
2019-04-24T15:35:53.960Z,7.30
2019-04-24T15:38:16.816Z,5.80
2019-04-24T15:43:21.366Z,7.28
2019-04-24T15:46:05.267Z,8.20
2019-04-24T15:50:56.429Z,11.53
2019-04-24T15:52:54.316Z,6.50
2019-04-24T15:55:31.495Z,8.83
2019-04-24T15:58:03.232Z,7.25
2019-04-24T16:01:06.176Z,6.80
2019-04-24T16:03:43.677Z,7.65
2019-04-24T16:06:09.221Z,9.93
2019-04-24T16:08:38.149Z,7.97
2019-04-24T16:11:07.944Z,10.00
2019-04-24T16:13:43.879Z,10.20
2019-04-24T16:16:41.069Z,11.03
2019-04-24T16:21:37.490Z,8.33
2019-04-24T16:29:16.295Z,7.25
2019-04-24T16:42:02.618Z,7.85
2019-04-24T16:56:55.822Z,9.43
2019-04-24T16:59:17.985Z,13.25
2019-04-24T17:02:01.501Z,10.90
2019-04-24T17:04:40.221Z,12.47
2019-04-24T17:12:16.087Z,8.83
2019-04-24T17:14:48.211Z,11.20
2019-04-24T17:22:50.804Z,8.85
2019-04-24T17:25:12.201Z,8.80
2019-04-24T17:35:26.826Z,9.80
2019-04-24T17:37:21.886Z,8.33
2019-04-24T17:39:56.243Z,10.30
2019-04-24T17:42:36.339Z,7.33
2019-04-24T17:45:27.242Z,13.88
2019-04-24T17:48:03.303Z,7.00
2019-04-24T17:50:21.720Z,8.23
2019-04-24T17:55:23.749Z,9.55
2019-04-24T17:57:48.792Z,10.03
2019-04-24T18:00:03.765Z,10.40
2019-04-24T18:02:32.793Z,7.53
2019-04-24T18:05:02.587Z,8.83
2019-04-24T18:07:31.566Z,7.97
2019-04-24T18:10:00.232Z,9.73
2019-04-24T18:12:28.981Z,7.28
2019-04-24T18:14:58.264Z,8.50
2019-04-24T18:17:27.295Z,9.63
2019-04-24T18:19:55.952Z,8.13
2019-04-24T18:22:36.243Z,8.38
2019-04-24T18:25:23.415Z,10.90
2019-04-24T18:27:52.513Z,11.60
2019-04-24T18:30:24.068Z,13.20
2019-04-24T18:32:52.804Z,9.33
2019-04-24T18:35:21.770Z,14.30
2019-04-24T18:37:50.980Z,12.70
2019-04-24T18:40:21.316Z,9.30
2019-04-24T18:42:50.990Z,15.35
2019-04-24T18:45:21.548Z,10.65
2019-04-24T18:47:51.641Z,10.00
2019-04-24T18:50:22.807Z,9.50
2019-04-24T18:52:52.462Z,12.88
2019-04-24T18:55:21.795Z,13.38
2019-04-24T18:57:50.562Z,13.43
2019-04-24T19:00:19.457Z,12.17
2019-04-24T19:02:49.228Z,13.43
2019-04-24T19:05:18.320Z,11.18
2019-04-24T19:07:47.313Z,7.87
2019-04-24T19:10:16.265Z,15.03
2019-04-24T19:12:44.980Z,13.43
2019-04-24T19:15:13.984Z,10.48
2019-04-24T19:17:54.277Z,8.43
2019-04-24T19:20:14.492Z,7.77
2019-04-24T19:22:43.541Z,10.00
2019-04-24T19:25:13.617Z,12.55
2019-04-24T19:27:42.884Z,12.93
2019-04-24T19:30:13.334Z,9.18
2019-04-24T19:32:42.215Z,11.30
2019-04-24T19:35:12.074Z,14.83
2019-04-24T19:37:42.348Z,11.00
2019-04-24T19:40:25.558Z,8.87
2019-04-24T19:42:41.746Z,8.70
2019-04-24T19:45:11.483Z,15.07
2019-04-24T19:47:41.853Z,8.73
2019-04-24T19:50:12.493Z,13.13
2019-04-24T19:52:41.685Z,12.93
2019-04-24T19:55:15.513Z,9.47
2019-04-24T19:57:42.478Z,10.67
2019-04-24T20:00:12.608Z,8.00
2019-04-24T20:02:42.193Z,12.00
2019-04-24T20:05:14.544Z,13.60
2019-04-24T20:07:42.130Z,10.47
2019-04-24T20:10:33.510Z,12.13
2019-04-24T20:13:02.918Z,8.97
2019-04-24T20:15:32.155Z,9.07
2019-04-24T20:18:02.188Z,9.70
2019-04-24T20:20:30.980Z,12.90
2019-04-24T20:22:59.751Z,13.10
2019-04-24T20:25:28.517Z,11.07
2019-04-24T20:27:57.691Z,14.13
2019-04-24T20:30:26.766Z,12.70
2019-04-24T20:32:55.478Z,10.40
2019-04-24T20:35:24.980Z,12.37
2019-04-24T20:37:53.712Z,8.67
2019-04-24T20:40:24.075Z,11.03
2019-04-24T20:42:53.268Z,10.23
2019-04-24T20:45:22.974Z,11.80
2019-04-24T20:47:52.269Z,11.70
2019-04-24T20:50:22.329Z,12.03
2019-04-24T20:52:51.783Z,11.73
2019-04-24T20:55:22.446Z,8.67
2019-04-24T20:57:51.979Z,10.63
2019-04-24T21:00:25.808Z,15.87
2019-04-24T21:02:54.696Z,11.57
2019-04-24T21:05:52.914Z,8.60
2019-04-24T21:08:40.868Z,11.77
2019-04-24T21:11:10.287Z,9.20
2019-04-24T21:13:41.259Z,9.07
2019-04-24T21:16:10.158Z,15.83
2019-04-24T21:18:38.806Z,9.63
2019-04-24T21:21:07.817Z,10.77
2019-04-24T21:23:36.739Z,7.83
2019-04-24T21:26:05.718Z,11.03
2019-04-24T21:28:34.795Z,16.27
2019-04-24T21:31:04.071Z,13.80
2019-04-24T21:33:33.024Z,10.77
2019-04-24T21:36:02.382Z,9.33
2019-04-24T21:38:31.238Z,13.40
2019-04-24T21:40:59.923Z,11.50
2019-04-24T21:43:30.551Z,13.83
2019-04-24T21:45:59.143Z,9.47
2019-04-24T21:48:28.035Z,12.33
2019-04-24T21:50:57.182Z,11.60
2019-04-24T21:56:05.276Z,11.90
2019-04-24T21:58:34.032Z,11.97
2019-04-24T22:01:35.542Z,13.37
2019-04-24T22:04:17.140Z,13.53
2019-04-24T22:06:51.774Z,11.87
2019-04-24T22:09:24.391Z,9.17
2019-04-24T22:11:53.480Z,15.47
2019-04-24T22:14:24.907Z,16.00
2019-04-24T22:16:53.397Z,8.93
2019-04-24T22:19:22.470Z,16.30
2019-04-24T22:22:06.475Z,11.77
2019-04-24T22:24:52.486Z,12.07
2019-04-24T22:27:34.925Z,17.57
2019-04-24T22:30:07.883Z,19.37
2019-04-24T22:32:38.083Z,14.53
2019-04-24T22:35:19.999Z,10.67
2019-04-24T22:37:48.734Z,11.63
2019-04-24T22:40:23.532Z,12.20
2019-04-24T22:42:52.614Z,15.90
2019-04-24T22:45:23.191Z,11.93
2019-04-24T22:47:52.215Z,17.37
2019-04-24T22:50:21.337Z,10.73
2019-04-24T22:52:51.654Z,12.30
2019-04-24T22:55:22.389Z,15.77
2019-04-24T22:57:51.033Z,12.57
2019-04-24T23:00:25.357Z,18.37
2019-04-24T23:02:54.603Z,19.43
2019-04-24T23:05:23.416Z,12.20
2019-04-24T23:07:52.282Z,12.30
2019-04-24T23:10:33.488Z,11.53
2019-04-24T23:12:52.704Z,12.10
2019-04-24T23:15:21.493Z,13.60
2019-04-24T23:17:50.321Z,13.20
2019-04-24T23:20:21.261Z,13.93
2019-04-24T23:23:07.346Z,19.27
2019-04-24T23:26:01.465Z,10.97
2019-04-24T23:28:42.214Z,14.20
2019-04-24T23:31:25.679Z,10.70
2019-04-24T23:33:56.076Z,14.03
2019-04-24T23:36:25.047Z,11.33
2019-04-24T23:38:53.730Z,14.73
2019-04-24T23:41:22.506Z,16.17
2019-04-24T23:43:53.009Z,11.30
2019-04-24T23:46:22.094Z,14.20
2019-04-24T23:48:52.229Z,14.37
2019-04-24T23:51:21.041Z,11.30
2019-04-24T23:53:51.341Z,13.70
2019-04-24T23:56:21.737Z,11.47
